createdAt,value
2022-12-19T00:01:56.309Z,32.70
2022-12-19T00:04:23.158Z,33.28
2022-12-19T00:06:49.914Z,34.85
2022-12-19T00:09:18.301Z,31.20
2022-12-19T00:11:45.121Z,34.90
2022-12-19T00:14:11.989Z,36.17
2022-12-19T00:16:38.937Z,31.17
2022-12-19T00:19:06.216Z,35.90
2022-12-19T00:21:35.170Z,33.15
2022-12-19T00:24:03.731Z,36.33
2022-12-19T00:26:36.576Z,32.95
2022-12-19T00:29:13.903Z,31.65
2022-12-19T00:31:41.412Z,33.97
2022-12-19T00:34:09.619Z,32.88
2022-12-19T00:36:36.411Z,32.85
2022-12-19T00:39:08.194Z,30.48
2022-12-19T00:41:41.660Z,29.05
2022-12-19T00:44:14.351Z,31.88
2022-12-19T00:46:41.428Z,33.42
2022-12-19T00:49:08.546Z,30.42
2022-12-19T00:51:40.019Z,32.67
2022-12-19T00:54:07.902Z,30.67
2022-12-19T00:56:37.495Z,29.75
2022-12-19T00:59:07.781Z,31.00
2022-12-19T01:01:46.865Z,30.65
2022-12-19T01:04:31.328Z,29.75
2022-12-19T01:07:03.165Z,30.63
2022-12-19T01:09:31.403Z,30.40
2022-12-19T01:11:58.462Z,32.63
2022-12-19T01:14:25.791Z,31.48
2022-12-19T01:16:55.434Z,30.83
2022-12-19T01:19:22.250Z,32.53
2022-12-19T01:21:49.001Z,32.35
2022-12-19T01:24:19.005Z,29.15
2022-12-19T01:26:51.589Z,32.20
2022-12-19T01:29:18.361Z,32.40
2022-12-19T01:31:45.164Z,30.58
2022-12-19T01:34:11.925Z,33.45
2022-12-19T01:36:39.742Z,33.83
2022-12-19T01:39:10.425Z,33.55
2022-12-19T01:41:37.686Z,30.67
2022-12-19T01:44:06.968Z,29.70
2022-12-19T01:46:51.014Z,33.38
2022-12-19T01:49:24.250Z,31.87
2022-12-19T01:51:53.645Z,31.45
2022-12-19T01:54:25.695Z,26.83
2022-12-19T01:56:55.792Z,31.58
2022-12-19T01:59:50.385Z,36.58
2022-12-19T02:02:33.045Z,35.67
2022-12-19T02:05:04.821Z,36.53
2022-12-19T02:07:32.883Z,30.33
2022-12-19T02:10:03.073Z,32.25
2022-12-19T02:12:33.911Z,32.28
2022-12-19T02:15:04.211Z,31.65
2022-12-19T02:17:43.063Z,30.05
2022-12-19T02:20:30.350Z,30.05
2022-12-19T02:23:02.805Z,29.15
2022-12-19T02:26:05.182Z,31.35
2022-12-19T02:29:05.914Z,30.52
2022-12-19T02:31:44.005Z,31.20
2022-12-19T02:34:28.144Z,29.92
2022-12-19T02:37:05.375Z,31.00
2022-12-19T02:39:48.508Z,30.52
2022-12-19T02:42:25.909Z,30.33
2022-12-19T02:44:55.016Z,29.45
2022-12-19T02:47:31.502Z,31.30
2022-12-19T02:49:58.518Z,27.27
2022-12-19T02:52:25.147Z,27.48
2022-12-19T02:54:54.349Z,28.52
2022-12-19T02:57:58.308Z,25.80
2022-12-19T03:00:27.479Z,25.10
2022-12-19T03:03:11.742Z,26.20
2022-12-19T03:05:47.324Z,26.92
2022-12-19T03:08:47.666Z,24.27
2022-12-19T03:11:15.470Z,23.60
2022-12-19T03:13:53.333Z,25.77
2022-12-19T03:16:20.080Z,23.83
2022-12-19T03:18:47.323Z,25.73
2022-12-19T03:21:35.091Z,23.33
2022-12-19T03:24:02.188Z,23.70
2022-12-19T03:26:33.127Z,25.00
2022-12-19T03:29:08.119Z,24.90
2022-12-19T03:34:19.517Z,25.70
2022-12-19T03:36:51.622Z,27.85
2022-12-19T03:39:20.884Z,25.75
2022-12-19T03:41:55.825Z,27.58
2022-12-19T03:44:26.023Z,28.40
2022-12-19T03:47:00.989Z,28.25
2022-12-19T03:49:27.648Z,29.33
2022-12-19T03:52:05.880Z,28.30
2022-12-19T03:54:39.791Z,30.92
2022-12-19T03:57:29.722Z,30.20
2022-12-19T04:00:04.583Z,29.77
2022-12-19T04:02:35.678Z,27.42
2022-12-19T04:05:13.497Z,28.33
2022-12-19T04:07:41.168Z,28.00
2022-12-19T04:10:12.101Z,29.42
2022-12-19T04:12:44.289Z,28.25
2022-12-19T04:15:14.668Z,25.83
2022-12-19T04:17:46.654Z,24.90
2022-12-19T04:20:16.529Z,24.83
2022-12-19T04:22:43.160Z,25.73
2022-12-19T04:25:19.603Z,25.42
2022-12-19T04:27:51.369Z,24.98
2022-12-19T04:30:19.734Z,25.85
2022-12-19T04:32:47.800Z,25.42
2022-12-19T04:35:16.507Z,21.67
2022-12-19T04:37:45.892Z,25.08
2022-12-19T04:40:13.130Z,24.90
2022-12-19T04:42:39.935Z,24.40
2022-12-19T04:45:07.130Z,23.58
2022-12-19T04:47:34.224Z,21.92
2022-12-19T04:50:01.103Z,25.58
2022-12-19T04:52:30.697Z,22.17
2022-12-19T04:54:57.362Z,22.17
2022-12-19T04:57:24.017Z,21.13
2022-12-19T04:59:53.641Z,19.83
2022-12-19T05:02:20.467Z,20.05
2022-12-19T05:04:47.192Z,19.75
2022-12-19T05:07:14.253Z,18.75
2022-12-19T05:09:41.114Z,18.02
2022-12-19T05:12:08.042Z,19.77
2022-12-19T05:14:34.850Z,21.45
2022-12-19T05:17:05.879Z,20.13
2022-12-19T05:19:38.616Z,21.50
2022-12-19T05:22:06.988Z,19.17
2022-12-19T05:24:33.611Z,18.42
2022-12-19T05:27:00.255Z,19.50
2022-12-19T05:29:27.030Z,20.80
2022-12-19T05:31:56.705Z,18.70
2022-12-19T05:34:25.017Z,20.65
2022-12-19T05:36:51.863Z,22.52
2022-12-19T05:39:18.491Z,21.00
2022-12-19T05:41:48.841Z,22.63
2022-12-19T05:44:16.247Z,19.83
2022-12-19T05:46:42.906Z,24.52
2022-12-19T05:49:09.760Z,18.15
2022-12-19T05:51:36.440Z,18.60
2022-12-19T05:54:03.260Z,18.88
2022-12-19T05:56:29.958Z,19.23
2022-12-19T05:58:56.905Z,19.17
2022-12-19T06:01:26.399Z,17.70
2022-12-19T06:03:54.295Z,17.60
2022-12-19T06:06:26.515Z,18.67
2022-12-19T06:08:58.432Z,20.38
2022-12-19T06:11:26.157Z,21.75
2022-12-19T06:13:54.287Z,25.08
2022-12-19T06:16:22.876Z,23.13
2022-12-19T06:18:49.726Z,26.48
2022-12-19T06:21:21.962Z,24.13
2022-12-19T06:26:22.164Z,27.90
2022-12-19T06:28:50.096Z,30.40
2022-12-19T06:31:17.412Z,27.10
2022-12-19T06:33:47.221Z,25.20
2022-12-19T06:36:18.722Z,28.25
2022-12-19T06:38:45.393Z,30.35
2022-12-19T06:41:12.055Z,26.00
2022-12-19T06:43:38.885Z,27.88
2022-12-19T06:46:05.757Z,27.23
2022-12-19T06:48:32.494Z,28.20
2022-12-19T06:50:59.500Z,28.15
2022-12-19T06:53:26.448Z,31.95
2022-12-19T06:55:57.325Z,30.20
2022-12-19T06:58:24.771Z,31.05
2022-12-19T07:00:52.187Z,26.85
2022-12-19T07:03:26.110Z,31.38
2022-12-19T07:05:53.643Z,28.27
2022-12-19T07:08:20.387Z,29.50
2022-12-19T07:10:47.133Z,30.42
2022-12-19T07:13:14.062Z,25.35
2022-12-19T07:15:40.987Z,29.63
2022-12-19T07:18:09.494Z,29.92
2022-12-19T07:20:43.335Z,27.50
2022-12-19T07:23:16.448Z,29.40
2022-12-19T07:25:43.196Z,29.55
2022-12-19T07:28:10.311Z,29.15
2022-12-19T07:30:40.091Z,31.05
2022-12-19T07:33:10.935Z,34.10
2022-12-19T07:35:38.478Z,32.45
2022-12-19T07:38:12.669Z,30.90
2022-12-19T07:40:39.385Z,29.65
2022-12-19T07:43:16.197Z,29.63
2022-12-19T07:46:02.964Z,29.77
2022-12-19T07:48:31.308Z,30.02
2022-12-19T07:51:11.525Z,28.45
2022-12-19T07:53:40.248Z,28.95
2022-12-19T07:56:08.599Z,28.52
2022-12-19T07:58:35.539Z,29.30
2022-12-19T08:01:04.455Z,27.35
2022-12-19T08:03:33.832Z,28.27
2022-12-19T08:06:01.784Z,27.83
2022-12-19T08:08:29.134Z,26.13
2022-12-19T08:10:56.993Z,29.58
2022-12-19T08:13:31.153Z,27.05
2022-12-19T08:16:02.766Z,28.95
2022-12-19T08:18:29.608Z,23.85
2022-12-19T08:21:00.110Z,27.95
2022-12-19T08:23:27.087Z,25.67
2022-12-19T08:26:05.396Z,26.50
2022-12-19T08:28:35.978Z,26.33
2022-12-19T08:31:14.422Z,26.60
2022-12-19T08:33:41.446Z,28.48
2022-12-19T08:36:13.734Z,25.50
2022-12-19T08:38:41.065Z,25.15
2022-12-19T08:41:08.532Z,26.40
2022-12-19T08:43:35.316Z,27.38
2022-12-19T08:46:02.896Z,26.45
2022-12-19T08:48:29.658Z,28.25
2022-12-19T08:50:58.307Z,27.60
2022-12-19T08:53:29.993Z,24.10
2022-12-19T08:55:58.334Z,25.63
2022-12-19T08:58:26.851Z,26.90
2022-12-19T09:01:03.341Z,25.33
2022-12-19T09:03:39.377Z,28.63
2022-12-19T09:06:19.745Z,26.70
2022-12-19T09:08:46.841Z,27.65
2022-12-19T09:11:16.724Z,28.60
2022-12-19T09:13:44.571Z,26.65
2022-12-19T09:16:19.615Z,29.20
2022-12-19T09:18:50.822Z,27.30
2022-12-19T09:21:19.155Z,28.08
2022-12-19T09:24:07.921Z,26.20
2022-12-19T09:26:35.468Z,27.95
2022-12-19T09:29:02.175Z,28.00
2022-12-19T09:31:29.568Z,25.25
2022-12-19T09:33:59.634Z,25.02
2022-12-19T09:36:26.297Z,24.45
2022-12-19T09:38:58.408Z,26.27
2022-12-19T09:41:52.853Z,24.55
2022-12-19T09:44:24.402Z,26.67
2022-12-19T09:46:59.853Z,25.77
2022-12-19T09:49:31.172Z,23.85
2022-12-19T09:52:01.080Z,25.42
2022-12-19T09:54:35.545Z,23.73
2022-12-19T09:57:06.293Z,25.15
2022-12-19T09:59:54.114Z,26.55
2022-12-19T10:02:37.529Z,26.13
2022-12-19T10:05:44.764Z,25.17
2022-12-19T10:08:42.649Z,22.50
2022-12-19T10:12:41.243Z,24.45
2022-12-19T10:14:54.724Z,25.58
2022-12-19T10:17:31.802Z,24.63
2022-12-19T10:20:41.665Z,26.25
2022-12-19T10:23:29.369Z,24.55
2022-12-19T10:26:41.345Z,26.23
2022-12-19T10:29:30.975Z,26.15
2022-12-19T10:32:29.320Z,26.08
2022-12-19T10:34:55.964Z,25.77
2022-12-19T10:37:42.337Z,26.40
2022-12-19T10:40:32.376Z,27.45
2022-12-19T10:43:28.603Z,27.60
2022-12-19T10:46:02.624Z,29.45
2022-12-19T10:48:30.982Z,28.40
2022-12-19T10:50:58.388Z,29.67
2022-12-19T10:53:31.189Z,28.00
2022-12-19T10:56:11.760Z,28.88
2022-12-19T10:58:42.931Z,30.85
2022-12-19T11:01:42.213Z,31.67
2022-12-19T11:04:27.862Z,30.13
2022-12-19T11:07:03.591Z,31.92
2022-12-19T11:09:49.921Z,28.75
2022-12-19T11:16:50.053Z,29.23
2022-12-19T11:19:17.854Z,34.22
2022-12-19T11:24:56.141Z,33.65
2022-12-19T11:29:31.090Z,32.90
2022-12-19T11:29:37.272Z,31.02
2022-12-19T11:30:35.299Z,33.17
2022-12-19T11:33:21.863Z,32.80
2022-12-19T11:35:54.849Z,33.03
2022-12-19T11:38:35.233Z,33.50
2022-12-19T11:41:17.122Z,31.50
2022-12-19T11:43:54.545Z,33.00
2022-12-19T11:46:24.118Z,30.27
2022-12-19T11:49:21.143Z,31.17
2022-12-19T11:53:02.481Z,31.33
2022-12-19T11:55:21.314Z,30.90
2022-12-19T11:57:51.524Z,28.00
2022-12-19T12:00:23.934Z,28.30
2022-12-19T12:03:00.545Z,28.00
2022-12-19T12:05:46.847Z,29.52
2022-12-19T12:10:11.524Z,28.67
2022-12-19T12:15:33.708Z,29.35
2022-12-19T12:23:13.224Z,29.67
2022-12-19T12:31:00.204Z,28.17
2022-12-19T12:31:22.671Z,26.73
2022-12-19T12:31:40.919Z,26.98
2022-12-19T12:31:53.451Z,27.50
2022-12-19T12:35:15.381Z,29.70
2022-12-19T12:35:31.530Z,30.83
2022-12-19T12:39:49.244Z,28.38
2022-12-19T12:43:03.151Z,28.33
2022-12-19T12:45:45.129Z,27.70
2022-12-19T12:48:36.701Z,29.73
2022-12-19T12:51:08.939Z,27.88
2022-12-19T12:53:40.900Z,29.00
2022-12-19T12:56:17.409Z,28.25
2022-12-19T12:58:46.995Z,28.42
2022-12-19T13:01:28.765Z,28.23
2022-12-19T13:04:01.348Z,29.98
2022-12-19T13:06:37.090Z,32.38
2022-12-19T13:09:10.288Z,31.48
2022-12-19T13:11:45.458Z,30.75
2022-12-19T13:14:33.890Z,31.40
2022-12-19T13:17:09.930Z,32.53
2022-12-19T13:19:54.985Z,28.92
2022-12-19T13:22:29.587Z,29.90
2022-12-19T13:27:29.140Z,33.40
2022-12-19T13:30:01.654Z,30.10
2022-12-19T13:32:54.012Z,30.13
2022-12-19T13:37:02.222Z,30.90
2022-12-19T13:39:48.761Z,28.92
2022-12-19T13:41:40.443Z,28.17
2022-12-19T13:44:07.079Z,28.65
2022-12-19T13:46:39.676Z,31.40
2022-12-19T13:49:13.374Z,30.73
2022-12-19T13:51:49.191Z,32.07
2022-12-19T13:54:28.032Z,31.02
2022-12-19T13:56:59.200Z,29.17
2022-12-19T13:59:33.365Z,31.77
2022-12-19T14:02:08.524Z,29.70
2022-12-19T14:04:35.356Z,30.27
2022-12-19T14:07:05.209Z,31.15
2022-12-19T14:11:28.085Z,32.03
2022-12-19T14:13:50.735Z,31.50
2022-12-19T14:15:27.848Z,30.63
2022-12-19T14:17:55.024Z,32.08
2022-12-19T14:22:07.947Z,30.38
2022-12-19T14:23:14.563Z,32.67
2022-12-19T14:28:19.473Z,28.77
2022-12-19T14:28:57.098Z,31.20
2022-12-19T14:31:25.283Z,29.85
2022-12-19T14:34:47.280Z,30.15
2022-12-19T14:36:50.114Z,28.33
2022-12-19T14:39:29.378Z,28.80
2022-12-19T14:42:13.509Z,29.48
2022-12-19T14:52:34.907Z,28.38
2022-12-19T14:54:10.441Z,27.77
2022-12-19T14:54:23.272Z,30.23
2022-12-19T14:54:24.920Z,28.05
2022-12-19T14:56:52.058Z,28.90
2022-12-19T14:59:36.102Z,27.95
2022-12-19T15:02:11.485Z,28.27
2022-12-19T15:04:51.894Z,29.50
2022-12-19T15:07:24.002Z,27.63
2022-12-19T15:11:09.163Z,29.92
2022-12-19T15:14:53.358Z,30.45
2022-12-19T15:16:00.739Z,26.60
2022-12-19T15:18:42.011Z,27.95
2022-12-19T15:21:15.135Z,29.50
2022-12-19T15:23:44.841Z,30.13
2022-12-19T15:26:16.839Z,27.10
2022-12-19T15:28:47.979Z,26.23
2022-12-19T15:31:14.730Z,26.60
2022-12-19T15:34:14.374Z,28.42
2022-12-19T15:36:32.607Z,26.08
2022-12-19T15:39:00.246Z,27.50
2022-12-19T15:41:27.521Z,24.10
2022-12-19T15:44:03.618Z,24.75
2022-12-19T15:46:31.524Z,28.27
2022-12-19T15:49:03.981Z,27.83
2022-12-19T15:51:33.248Z,25.63
2022-12-19T15:54:15.661Z,27.27
2022-12-19T15:56:52.231Z,26.40
2022-12-19T15:59:42.875Z,24.30
2022-12-19T16:02:19.096Z,31.00
2022-12-19T16:04:46.671Z,31.05
2022-12-19T16:07:15.980Z,31.60
2022-12-19T16:09:42.652Z,29.05
2022-12-19T16:12:14.747Z,29.48
2022-12-19T16:14:46.429Z,27.80
2022-12-19T16:17:19.160Z,31.25
2022-12-19T16:19:46.075Z,29.92
2022-12-19T16:22:30.563Z,33.63
2022-12-19T16:24:57.199Z,29.42
2022-12-19T16:27:29.287Z,31.10
2022-12-19T16:29:56.756Z,31.65
2022-12-19T16:32:23.725Z,28.55
2022-12-19T16:34:51.054Z,26.88
2022-12-19T16:37:17.835Z,31.35
2022-12-19T16:39:47.611Z,30.85
2022-12-19T16:42:18.518Z,31.35
2022-12-19T16:44:48.150Z,30.33
2022-12-19T16:47:18.041Z,30.65
2022-12-19T16:49:45.031Z,30.92
2022-12-19T16:52:12.106Z,30.17
2022-12-19T16:54:42.809Z,28.00
2022-12-19T16:57:27.285Z,29.13
2022-12-19T16:59:54.010Z,29.17
2022-12-19T17:02:37.242Z,31.27
2022-12-19T17:05:04.689Z,30.23
2022-12-19T17:07:34.320Z,31.83
2022-12-19T17:10:00.975Z,31.90
2022-12-19T17:12:28.140Z,30.02
2022-12-19T17:14:54.823Z,32.85
2022-12-19T17:17:21.560Z,27.42
2022-12-19T17:19:48.245Z,30.20
2022-12-19T17:22:17.518Z,29.77
2022-12-19T17:24:47.580Z,28.88
2022-12-19T17:27:16.828Z,29.05
2022-12-19T17:29:43.485Z,32.20
2022-12-19T17:32:21.697Z,29.80
2022-12-19T17:34:50.469Z,32.03
2022-12-19T17:37:17.247Z,32.53
2022-12-19T17:39:44.048Z,31.25
2022-12-19T17:42:20.842Z,32.05
2022-12-19T17:44:52.003Z,31.00
2022-12-19T17:47:20.272Z,28.08
2022-12-19T17:49:49.204Z,32.45
2022-12-19T17:52:18.210Z,32.08
2022-12-19T17:54:46.165Z,29.05
2022-12-19T17:57:17.363Z,31.27
2022-12-19T17:59:46.264Z,30.25
2022-12-19T18:02:20.499Z,29.30
2022-12-19T18:04:47.463Z,27.73
2022-12-19T18:07:16.409Z,25.88
2022-12-19T18:09:43.387Z,30.67
2022-12-19T18:12:10.452Z,27.25
2022-12-19T18:14:37.557Z,26.58
2022-12-19T18:19:39.937Z,29.20
2022-12-19T18:22:16.867Z,27.63
2022-12-19T18:24:43.853Z,29.60
2022-12-19T18:27:10.715Z,31.30
2022-12-19T18:29:42.253Z,29.75
2022-12-19T18:32:17.306Z,30.27
2022-12-19T18:34:47.144Z,26.65
2022-12-19T18:37:15.470Z,29.83
2022-12-19T18:39:46.257Z,29.27
2022-12-19T18:42:21.725Z,30.35
2022-12-19T18:44:48.321Z,31.65
2022-12-19T18:47:23.224Z,29.10
2022-12-19T18:49:52.113Z,28.50
2022-12-19T18:52:25.402Z,29.20
2022-12-19T18:54:52.097Z,29.77
2022-12-19T18:57:18.690Z,29.38
2022-12-19T18:59:45.318Z,27.35
2022-12-19T19:02:27.048Z,26.45
2022-12-19T19:04:54.269Z,27.75
2022-12-19T19:07:20.913Z,30.20
2022-12-19T19:09:47.594Z,29.65
2022-12-19T19:12:15.303Z,26.20
2022-12-19T19:14:42.006Z,28.45
2022-12-19T19:17:23.401Z,28.05
2022-12-19T19:19:50.162Z,26.75
2022-12-19T19:22:16.820Z,27.67
2022-12-19T19:24:43.487Z,29.38
2022-12-19T19:27:13.165Z,31.42
2022-12-19T19:29:39.753Z,30.63
2022-12-19T19:32:06.390Z,29.17
2022-12-19T19:34:37.119Z,32.45
2022-12-19T19:37:07.145Z,28.38
2022-12-19T19:39:34.812Z,28.65
2022-12-19T19:42:02.526Z,29.90
2022-12-19T19:44:29.263Z,29.58
2022-12-19T19:46:58.067Z,25.55
2022-12-19T19:49:24.902Z,28.95
2022-12-19T19:52:00.472Z,27.40
2022-12-19T19:54:29.674Z,25.65
2022-12-19T19:57:03.938Z,25.63
2022-12-19T19:59:31.509Z,26.85
2022-12-19T20:01:58.395Z,24.83
2022-12-19T20:04:28.762Z,26.80
2022-12-19T20:06:55.482Z,26.85
2022-12-19T20:09:23.309Z,26.70
2022-12-19T20:11:52.685Z,26.25
2022-12-19T20:14:19.340Z,25.38
2022-12-19T20:16:50.002Z,26.13
2022-12-19T20:19:17.658Z,26.00
2022-12-19T20:21:45.037Z,26.60
2022-12-19T20:24:12.248Z,25.98
2022-12-19T20:26:39.351Z,24.35
2022-12-19T20:29:06.015Z,27.25
2022-12-19T20:31:33.591Z,25.73
2022-12-19T20:34:01.056Z,24.90
2022-12-19T20:36:28.112Z,24.17
2022-12-19T20:38:54.921Z,24.50
2022-12-19T20:41:22.280Z,22.52
2022-12-19T20:43:56.570Z,24.25
2022-12-19T20:46:23.422Z,23.05
2022-12-19T20:48:53.843Z,23.55
2022-12-19T20:51:22.325Z,24.33
2022-12-19T20:53:52.527Z,23.60
2022-12-19T20:56:19.887Z,20.98
2022-12-19T20:58:46.529Z,23.55
2022-12-19T21:01:18.729Z,24.02
2022-12-19T21:03:47.200Z,23.13
2022-12-19T21:06:17.559Z,21.70
2022-12-19T21:08:44.381Z,23.13
2022-12-19T21:11:11.788Z,23.70
2022-12-19T21:13:39.539Z,24.98
2022-12-19T21:16:08.716Z,25.08
2022-12-19T21:18:37.661Z,24.02
2022-12-19T21:21:04.896Z,25.88
2022-12-19T21:23:35.401Z,25.23
2022-12-19T21:26:07.798Z,25.80
2022-12-19T21:28:34.592Z,24.23
2022-12-19T21:31:28.121Z,24.42
2022-12-19T21:34:00.642Z,24.42
2022-12-19T21:36:31.216Z,25.38
2022-12-19T21:38:59.879Z,23.48
2022-12-19T21:41:30.328Z,25.38
2022-12-19T21:44:00.629Z,23.75
2022-12-19T21:46:30.098Z,25.00
2022-12-19T21:49:00.636Z,23.90
2022-12-19T21:51:29.833Z,23.52
2022-12-19T21:54:05.428Z,23.73
2022-12-19T21:56:42.460Z,27.23
2022-12-19T21:59:23.625Z,25.77
2022-12-19T22:01:53.139Z,24.45
2022-12-19T22:04:21.755Z,26.05
2022-12-19T22:06:51.581Z,23.10
2022-12-19T22:09:22.019Z,22.67
2022-12-19T22:11:48.922Z,21.73
2022-12-19T22:14:16.861Z,22.05
2022-12-19T22:16:43.771Z,22.42
2022-12-19T22:19:13.724Z,23.73
2022-12-19T22:21:45.098Z,23.02
2022-12-19T22:24:13.970Z,21.92
2022-12-19T22:26:41.189Z,24.67
2022-12-19T22:29:13.825Z,24.88
2022-12-19T22:31:41.313Z,24.55
2022-12-19T22:34:11.849Z,24.50
2022-12-19T22:36:41.449Z,24.67
2022-12-19T22:39:14.452Z,24.48
2022-12-19T22:41:43.518Z,23.05
2022-12-19T22:44:24.451Z,20.98
2022-12-19T22:46:54.563Z,22.85
2022-12-19T22:49:21.542Z,22.25
2022-12-19T22:51:48.239Z,21.58
2022-12-19T22:54:15.115Z,19.25
2022-12-19T22:56:42.193Z,20.73
2022-12-19T22:59:11.954Z,20.00
2022-12-19T23:01:41.068Z,19.02
2022-12-19T23:04:10.664Z,22.80
2022-12-19T23:06:38.201Z,19.85
2022-12-19T23:09:09.997Z,19.63
2022-12-19T23:11:40.143Z,19.42
2022-12-19T23:14:08.782Z,16.35
2022-12-19T23:16:37.936Z,20.60
2022-12-19T23:19:11.200Z,20.67
2022-12-19T23:21:38.210Z,25.55
2022-12-19T23:24:11.795Z,22.80
2022-12-19T23:26:39.214Z,22.03
2022-12-19T23:29:09.007Z,23.08
2022-12-19T23:31:41.320Z,20.58
2022-12-19T23:34:09.449Z,20.77
2022-12-19T23:37:09.727Z,21.35
2022-12-19T23:39:27.513Z,21.00
2022-12-19T23:41:56.723Z,20.85
2022-12-19T23:44:23.513Z,21.67
2022-12-19T23:46:50.136Z,21.25
2022-12-19T23:49:16.816Z,20.13
2022-12-19T23:51:43.451Z,23.00
2022-12-19T23:54:10.092Z,24.02
2022-12-19T23:56:37.620Z,25.95
2022-12-19T23:59:04.472Z,23.65
